createdAt,value
2019-04-07T00:00:29.045Z,20.30
2019-04-07T00:02:57.482Z,20.13
2019-04-07T00:05:26.568Z,20.67
2019-04-07T00:07:55.769Z,16.57
2019-04-07T00:10:24.939Z,20.50
2019-04-07T00:12:53.910Z,20.60
2019-04-07T00:15:22.998Z,19.57
2019-04-07T00:17:51.506Z,17.33
2019-04-07T00:20:20.022Z,20.40
2019-04-07T00:22:48.810Z,19.87
2019-04-07T00:25:17.721Z,17.67
2019-04-07T00:27:46.626Z,17.87
2019-04-07T00:30:15.560Z,19.33
2019-04-07T00:32:44.255Z,25.67
2019-04-07T00:35:23.248Z,16.87
2019-04-07T00:37:43.136Z,21.27
2019-04-07T00:40:13.126Z,19.47
2019-04-07T00:42:41.556Z,16.60
2019-04-07T00:45:10.722Z,22.17
2019-04-07T00:47:39.153Z,22.43
2019-04-07T00:50:07.933Z,18.83
2019-04-07T00:52:36.920Z,21.37
2019-04-07T00:55:07.662Z,24.10
2019-04-07T00:57:36.334Z,18.03
2019-04-07T01:00:09.560Z,19.43
2019-04-07T01:02:38.751Z,18.03
2019-04-07T01:05:07.478Z,20.70
2019-04-07T01:07:36.119Z,22.83
2019-04-07T01:10:06.173Z,18.83
2019-04-07T01:12:34.692Z,16.20
2019-04-07T01:15:04.296Z,20.13
2019-04-07T01:17:33.329Z,19.10
2019-04-07T01:20:01.825Z,18.40
2019-04-07T01:22:30.882Z,21.47
2019-04-07T01:24:59.445Z,17.77
2019-04-07T01:27:28.520Z,19.00
2019-04-07T01:29:57.110Z,19.57
2019-04-07T01:32:25.704Z,23.97
2019-04-07T01:34:54.710Z,17.93
2019-04-07T01:37:23.297Z,16.40
2019-04-07T01:39:51.739Z,18.90
2019-04-07T01:42:33.709Z,20.77
2019-04-07T01:45:12.812Z,20.10
2019-04-07T01:47:43.109Z,16.03
2019-04-07T01:50:13.412Z,25.67
2019-04-07T01:52:50.306Z,18.23
2019-04-07T01:55:26.861Z,17.33
2019-04-07T01:58:12.008Z,18.90
2019-04-07T02:00:42.943Z,21.10
2019-04-07T02:03:13.078Z,16.57
2019-04-07T02:05:58.623Z,16.27
2019-04-07T02:08:23.384Z,18.23
2019-04-07T02:10:53.503Z,18.67
2019-04-07T02:13:36.148Z,20.90
2019-04-07T02:16:09.206Z,22.47
2019-04-07T02:18:40.007Z,20.30
2019-04-07T02:21:10.292Z,19.63
2019-04-07T02:23:55.949Z,17.80
2019-04-07T02:26:28.976Z,17.23
2019-04-07T02:29:02.696Z,19.93
2019-04-07T02:31:35.956Z,20.90
2019-04-07T02:34:12.243Z,18.20
2019-04-07T02:36:44.970Z,16.70
2019-04-07T02:39:21.503Z,15.33
2019-04-07T02:41:54.782Z,18.53
2019-04-07T02:44:41.041Z,19.10
2019-04-07T02:47:11.202Z,21.77
2019-04-07T02:49:43.924Z,20.73
2019-04-07T02:52:23.020Z,20.87
2019-04-07T02:54:55.846Z,20.77
2019-04-07T02:57:26.124Z,23.37
2019-04-07T02:59:57.828Z,27.07
2019-04-07T03:02:28.369Z,17.17
2019-04-07T03:05:05.304Z,20.33
2019-04-07T03:07:42.043Z,19.10
2019-04-07T03:10:12.813Z,16.67
2019-04-07T03:12:48.950Z,19.47
2019-04-07T03:15:24.961Z,19.60
2019-04-07T03:18:00.997Z,21.83
2019-04-07T03:20:31.191Z,20.13
2019-04-07T03:23:05.129Z,18.80
2019-04-07T03:25:53.235Z,18.57
2019-04-07T03:28:29.143Z,18.07
2019-04-07T03:31:12.842Z,24.13
2019-04-07T03:34:01.212Z,19.63
2019-04-07T03:37:08.953Z,22.43
2019-04-07T03:39:24.478Z,18.67
2019-04-07T03:41:57.643Z,19.23
2019-04-07T03:44:36.949Z,20.03
2019-04-07T03:47:22.324Z,23.30
2019-04-07T03:49:57.895Z,20.37
2019-04-07T03:52:46.768Z,23.00
2019-04-07T03:55:25.974Z,18.93
2019-04-07T03:58:08.260Z,20.57
2019-04-07T04:01:03.788Z,24.77
2019-04-07T04:03:37.386Z,19.77
2019-04-07T04:06:11.679Z,18.60
2019-04-07T04:08:58.695Z,22.97
2019-04-07T04:11:32.419Z,17.63
2019-04-07T04:14:15.199Z,22.20
2019-04-07T04:16:45.791Z,19.63
2019-04-07T04:19:14.507Z,21.40
2019-04-07T04:21:44.293Z,18.70
2019-04-07T04:24:12.942Z,21.70
2019-04-07T04:26:42.047Z,21.60
2019-04-07T04:29:10.826Z,19.27
2019-04-07T04:31:40.176Z,21.83
2019-04-07T04:34:09.587Z,21.90
2019-04-07T04:36:38.364Z,20.23
2019-04-07T04:39:08.259Z,21.23
2019-04-07T04:41:36.942Z,21.30
2019-04-07T04:44:05.416Z,20.70
2019-04-07T04:46:34.449Z,19.63
2019-04-07T04:49:03.029Z,20.87
2019-04-07T04:51:36.292Z,23.47
2019-04-07T04:54:01.661Z,22.87
2019-04-07T04:56:30.937Z,22.70
2019-04-07T04:58:59.806Z,23.63
2019-04-07T05:01:28.278Z,21.23
2019-04-07T05:03:56.730Z,26.97
2019-04-07T05:06:25.363Z,17.93
2019-04-07T05:08:54.521Z,20.17
2019-04-07T05:11:23.895Z,25.77
2019-04-07T05:13:52.994Z,21.77
2019-04-07T05:16:21.513Z,20.63
2019-04-07T05:18:50.035Z,20.83
2019-04-07T05:21:18.639Z,19.83
2019-04-07T05:23:47.173Z,22.10
2019-04-07T05:26:15.726Z,22.87
2019-04-07T05:28:44.996Z,20.93
2019-04-07T05:31:13.524Z,22.33
2019-04-07T05:33:42.049Z,20.33
2019-04-07T05:36:10.523Z,23.87
2019-04-07T05:38:39.512Z,20.13
2019-04-07T05:41:08.071Z,22.40
2019-04-07T05:43:36.965Z,19.37
2019-04-07T05:46:07.081Z,22.27
2019-04-07T05:48:36.101Z,22.93
2019-04-07T05:51:04.552Z,24.80
2019-04-07T05:53:33.320Z,24.03
2019-04-07T05:56:02.240Z,21.90
2019-04-07T05:58:30.777Z,22.27
2019-04-07T06:00:59.527Z,20.53
2019-04-07T06:03:28.628Z,19.43
2019-04-07T06:05:57.773Z,20.33
2019-04-07T06:08:33.729Z,19.93
2019-04-07T06:11:00.037Z,22.63
2019-04-07T06:13:26.757Z,20.43
2019-04-07T06:15:55.197Z,21.30
2019-04-07T06:18:23.955Z,22.03
2019-04-07T06:20:52.465Z,21.63
2019-04-07T06:23:24.237Z,20.80
2019-04-07T06:25:51.133Z,20.40
2019-04-07T06:28:19.647Z,21.27
2019-04-07T06:30:48.378Z,23.10
2019-04-07T06:33:17.490Z,23.73
2019-04-07T06:35:47.336Z,19.60
2019-04-07T06:38:16.636Z,21.23
2019-04-07T06:40:45.885Z,26.87
2019-04-07T06:43:14.604Z,27.87
2019-04-07T06:45:47.797Z,21.33
2019-04-07T06:48:16.621Z,19.60
2019-04-07T06:50:58.309Z,23.33
2019-04-07T06:53:27.941Z,19.57
2019-04-07T06:56:03.225Z,22.53
2019-04-07T06:58:41.408Z,21.63
2019-04-07T07:01:11.104Z,20.53
2019-04-07T07:03:47.622Z,25.37
2019-04-07T07:06:20.554Z,30.13
2019-04-07T07:08:55.653Z,23.13
2019-04-07T07:11:43.268Z,21.30
2019-04-07T07:14:36.701Z,20.67
2019-04-07T07:17:18.555Z,25.40
2019-04-07T07:19:48.757Z,22.77
2019-04-07T07:22:21.856Z,21.83
2019-04-07T07:24:50.388Z,26.57
2019-04-07T07:27:18.990Z,24.67
2019-04-07T07:29:48.544Z,22.40
2019-04-07T07:32:18.010Z,26.70
2019-04-07T07:34:46.660Z,24.70
2019-04-07T07:37:15.832Z,23.97
2019-04-07T07:39:45.168Z,22.30
2019-04-07T07:42:14.745Z,27.27
2019-04-07T07:44:43.836Z,25.03
2019-04-07T07:47:12.355Z,22.23
2019-04-07T07:49:41.498Z,29.97
2019-04-07T07:52:11.614Z,25.37
2019-04-07T07:54:41.017Z,18.47
2019-04-07T07:57:09.618Z,23.53
2019-04-07T07:59:39.437Z,19.20
2019-04-07T08:02:08.612Z,19.60
2019-04-07T08:04:37.763Z,24.07
2019-04-07T08:07:06.681Z,28.53
2019-04-07T08:09:35.278Z,21.27
2019-04-07T08:12:03.788Z,22.60
2019-04-07T08:14:32.498Z,21.40
2019-04-07T08:17:02.717Z,26.30
2019-04-07T08:19:31.768Z,22.87
2019-04-07T08:22:00.651Z,21.17
2019-04-07T08:24:29.358Z,22.33
2019-04-07T08:26:59.107Z,20.50
2019-04-07T08:29:28.048Z,20.23
2019-04-07T08:31:56.644Z,19.10
2019-04-07T08:34:25.486Z,19.40
2019-04-07T08:36:54.167Z,21.50
2019-04-07T08:39:25.660Z,27.53
2019-04-07T08:41:52.933Z,18.23
2019-04-07T08:44:21.611Z,21.07
2019-04-07T08:46:50.816Z,20.07
2019-04-07T08:49:23.378Z,18.87
2019-04-07T08:51:49.558Z,16.07
2019-04-07T08:54:18.445Z,18.37
2019-04-07T08:56:47.012Z,18.27
2019-04-07T08:59:17.018Z,21.47
2019-04-07T09:01:45.816Z,24.13
2019-04-07T09:04:16.523Z,17.50
2019-04-07T09:06:44.937Z,17.60
2019-04-07T09:09:14.043Z,23.57
2019-04-07T09:11:42.582Z,16.57
2019-04-07T09:14:11.044Z,19.00
2019-04-07T09:16:41.649Z,21.53
2019-04-07T09:19:23.773Z,16.77
2019-04-07T09:21:54.332Z,19.07
2019-04-07T09:24:24.892Z,19.17
2019-04-07T09:27:17.107Z,16.60
2019-04-07T09:30:02.487Z,18.70
2019-04-07T09:32:44.899Z,15.80
2019-04-07T09:35:27.089Z,18.70
2019-04-07T09:37:57.657Z,12.97
2019-04-07T09:40:46.269Z,15.20
2019-04-07T09:43:19.180Z,14.60
2019-04-07T09:45:55.835Z,15.37
2019-04-07T09:48:35.445Z,14.70
2019-04-07T09:51:17.652Z,15.30
2019-04-07T09:53:50.257Z,14.43
2019-04-07T09:56:37.890Z,16.50
2019-04-07T09:59:08.046Z,19.10
2019-04-07T10:01:38.907Z,15.87
2019-04-07T10:04:09.188Z,17.63
2019-04-07T10:06:49.581Z,13.40
2019-04-07T10:09:28.564Z,16.40
2019-04-07T10:11:58.755Z,14.90
2019-04-07T10:14:45.149Z,20.77
2019-04-07T10:17:24.353Z,16.30
2019-04-07T10:19:55.016Z,13.20
2019-04-07T10:22:32.002Z,19.23
2019-04-07T10:25:09.184Z,14.83
2019-04-07T10:27:39.709Z,16.23
2019-04-07T10:30:26.978Z,16.37
2019-04-07T10:33:00.213Z,16.83
2019-04-07T10:35:30.672Z,16.27
2019-04-07T10:38:07.458Z,12.37
2019-04-07T10:40:41.153Z,15.83
2019-04-07T10:43:28.159Z,14.73
2019-04-07T10:46:02.336Z,13.83
2019-04-07T10:48:33.262Z,17.67
2019-04-07T10:51:19.802Z,18.27
2019-04-07T10:53:56.202Z,14.97
2019-04-07T10:56:26.586Z,18.10
2019-04-07T10:58:56.797Z,17.40
2019-04-07T11:01:36.848Z,15.87
2019-04-07T11:04:07.233Z,13.70
2019-04-07T11:06:46.221Z,18.30
2019-04-07T11:09:22.416Z,22.37
2019-04-07T11:11:55.266Z,15.53
2019-04-07T11:14:41.690Z,15.63
2019-04-07T11:17:12.533Z,13.60
2019-04-07T11:19:59.061Z,19.27
2019-04-07T11:22:33.759Z,15.10
2019-04-07T11:25:06.625Z,14.40
2019-04-07T11:27:48.990Z,14.40
2019-04-07T11:30:31.073Z,14.10
2019-04-07T11:33:19.296Z,16.37
2019-04-07T11:35:49.519Z,18.43
2019-04-07T11:38:19.821Z,14.37
2019-04-07T11:40:59.452Z,15.10
2019-04-07T11:43:30.411Z,13.67
2019-04-07T11:46:03.055Z,16.70
2019-04-07T11:48:49.059Z,14.53
2019-04-07T11:51:28.051Z,15.23
2019-04-07T11:53:58.855Z,15.03
2019-04-07T11:56:29.639Z,17.90
2019-04-07T11:59:07.801Z,13.27
2019-04-07T12:01:50.152Z,15.03
2019-04-07T12:04:21.710Z,16.90
2019-04-07T12:06:54.748Z,13.13
2019-04-07T12:09:28.296Z,12.60
2019-04-07T12:12:07.982Z,16.50
2019-04-07T12:14:38.485Z,15.83
2019-04-07T12:17:25.435Z,16.37
2019-04-07T12:20:10.902Z,13.27
2019-04-07T12:22:50.186Z,13.57
2019-04-07T12:25:21.100Z,14.03
2019-04-07T12:28:03.558Z,15.53
2019-04-07T12:30:42.650Z,13.87
2019-04-07T12:33:19.072Z,13.17
2019-04-07T12:35:55.140Z,12.40
2019-04-07T12:38:26.481Z,12.83
2019-04-07T12:41:16.967Z,13.73
2019-04-07T12:43:47.439Z,13.33
2019-04-07T12:46:15.564Z,15.70
2019-04-07T12:48:51.415Z,13.00
2019-04-07T12:51:37.856Z,13.40
2019-04-07T12:54:11.793Z,14.80
2019-04-07T12:56:42.327Z,14.83
2019-04-07T12:59:24.429Z,15.50
2019-04-07T13:01:54.564Z,13.00
2019-04-07T13:04:25.479Z,13.53
2019-04-07T13:06:55.670Z,13.37
2019-04-07T13:09:37.721Z,17.23
2019-04-07T13:12:25.399Z,12.00
2019-04-07T13:14:59.019Z,15.73
2019-04-07T13:17:38.166Z,15.37
2019-04-07T13:20:09.188Z,15.63
2019-04-07T13:22:48.694Z,12.73
2019-04-07T13:25:25.163Z,12.53
2019-04-07T13:28:08.169Z,12.53
2019-04-07T13:30:41.093Z,13.07
2019-04-07T13:33:20.550Z,15.23
2019-04-07T13:36:02.783Z,15.33
2019-04-07T13:38:32.935Z,10.17
2019-04-07T13:41:12.261Z,12.10
2019-04-07T13:43:48.671Z,11.57
2019-04-07T13:46:36.264Z,15.63
2019-04-07T13:49:14.972Z,13.30
2019-04-07T13:51:59.907Z,13.73
2019-04-07T13:54:35.400Z,13.60
2019-04-07T13:57:25.618Z,13.17
2019-04-07T13:59:59.331Z,13.23
2019-04-07T14:02:38.882Z,11.00
2019-04-07T14:05:18.540Z,13.47
2019-04-07T14:07:55.412Z,13.77
2019-04-07T14:10:25.683Z,15.10
2019-04-07T14:12:55.767Z,13.50
2019-04-07T14:15:42.016Z,12.57
2019-04-07T14:18:30.936Z,11.83
2019-04-07T14:21:07.065Z,14.57
2019-04-07T14:23:42.554Z,11.20
2019-04-07T14:26:19.030Z,9.87
2019-04-07T14:28:54.870Z,10.33
2019-04-07T14:31:28.226Z,14.73
2019-04-07T14:34:13.917Z,13.27
2019-04-07T14:37:02.188Z,13.70
2019-04-07T14:39:32.503Z,12.00
2019-04-07T14:42:08.708Z,12.70
2019-04-07T14:44:50.023Z,18.43
2019-04-07T14:47:28.853Z,15.10
2019-04-07T14:50:07.949Z,10.67
2019-04-07T14:52:38.320Z,11.40
2019-04-07T14:55:18.388Z,13.40
2019-04-07T14:58:01.336Z,14.67
2019-04-07T15:00:34.480Z,13.20
2019-04-07T15:03:02.954Z,15.73
2019-04-07T15:05:33.031Z,12.97
2019-04-07T15:08:03.344Z,13.63
2019-04-07T15:10:34.072Z,15.47
2019-04-07T15:13:04.228Z,12.77
2019-04-07T15:15:33.804Z,13.47
2019-04-07T15:18:03.633Z,12.63
2019-04-07T15:20:32.314Z,11.20
2019-04-07T15:23:01.925Z,13.27
2019-04-07T15:25:31.369Z,11.83
2019-04-07T15:28:01.062Z,14.70
2019-04-07T15:30:29.985Z,10.90
2019-04-07T15:33:01.229Z,10.27
2019-04-07T15:35:29.621Z,12.70
2019-04-07T15:37:59.087Z,15.87
2019-04-07T15:40:28.168Z,14.17
2019-04-07T15:42:56.911Z,12.87
2019-04-07T15:45:25.439Z,11.60
2019-04-07T15:47:54.089Z,14.13
2019-04-07T15:50:22.687Z,13.33
2019-04-07T15:52:51.253Z,14.17
2019-04-07T15:55:19.837Z,15.50
2019-04-07T15:57:49.183Z,12.03
2019-04-07T16:00:19.536Z,11.20
2019-04-07T16:02:49.357Z,12.83
2019-04-07T16:05:18.336Z,14.50
2019-04-07T16:07:46.805Z,11.97
2019-04-07T16:10:18.677Z,12.63
2019-04-07T16:12:51.139Z,11.50
2019-04-07T16:15:18.165Z,11.73
2019-04-07T16:17:47.599Z,12.57
2019-04-07T16:20:22.938Z,13.17
2019-04-07T16:22:49.023Z,11.50
2019-04-07T16:25:17.283Z,16.03
2019-04-07T16:27:45.788Z,10.47
2019-04-07T16:30:16.429Z,13.53
2019-04-07T16:32:45.294Z,12.33
2019-04-07T16:35:16.317Z,11.80
2019-04-07T16:37:44.517Z,15.03
2019-04-07T16:40:13.173Z,11.90
2019-04-07T16:42:45.609Z,13.33
2019-04-07T16:45:16.463Z,12.97
2019-04-07T16:47:43.332Z,14.10
2019-04-07T16:50:12.254Z,11.17
2019-04-07T16:52:40.731Z,15.27
2019-04-07T16:55:28.614Z,13.77
2019-04-07T16:57:59.452Z,11.07
2019-04-07T17:00:28.007Z,9.40
2019-04-07T17:02:56.901Z,12.07
2019-04-07T17:05:25.664Z,11.50
2019-04-07T17:07:56.561Z,11.40
2019-04-07T17:10:28.856Z,11.97
2019-04-07T17:12:54.753Z,10.33
2019-04-07T17:15:23.435Z,11.67
2019-04-07T17:17:53.325Z,12.30
2019-04-07T17:20:22.968Z,15.00
2019-04-07T17:22:52.988Z,11.97
2019-04-07T17:25:21.730Z,14.73
2019-04-07T17:27:50.891Z,11.57
2019-04-07T17:30:24.339Z,10.87
2019-04-07T17:32:52.234Z,13.47
2019-04-07T17:35:21.606Z,11.57
2019-04-07T17:37:50.614Z,10.63
2019-04-07T17:40:23.421Z,13.23
2019-04-07T17:42:53.710Z,13.63
2019-04-07T17:45:24.639Z,13.03
2019-04-07T17:48:05.580Z,11.70
2019-04-07T17:50:33.669Z,14.20
2019-04-07T17:53:19.773Z,10.50
2019-04-07T17:55:52.775Z,11.67
2019-04-07T17:58:40.858Z,12.73
2019-04-07T18:01:23.227Z,14.07
2019-04-07T18:04:00.658Z,11.53
2019-04-07T18:06:32.082Z,12.43
2019-04-07T18:09:12.220Z,12.03
2019-04-07T18:11:40.148Z,11.23
2019-04-07T18:14:13.182Z,13.67
2019-04-07T18:16:55.112Z,14.23
2019-04-07T18:19:39.797Z,10.10
2019-04-07T18:22:12.602Z,13.07
2019-04-07T18:24:59.629Z,12.50
2019-04-07T18:27:48.240Z,12.67
2019-04-07T18:30:18.614Z,16.63
2019-04-07T18:33:04.279Z,12.30
2019-04-07T18:35:43.345Z,15.60
2019-04-07T18:38:29.817Z,11.13
2019-04-07T18:41:09.348Z,14.83
2019-04-07T18:43:52.008Z,13.83
2019-04-07T18:46:21.514Z,14.23
2019-04-07T18:49:06.446Z,12.47
2019-04-07T18:51:47.149Z,13.03
2019-04-07T18:54:14.095Z,9.63
2019-04-07T18:56:47.523Z,12.97
2019-04-07T18:59:26.956Z,12.63
2019-04-07T19:02:03.253Z,11.37
2019-04-07T19:04:33.428Z,15.00
2019-04-07T19:07:09.756Z,16.37
2019-04-07T19:09:39.867Z,14.80
2019-04-07T19:12:16.805Z,15.80
2019-04-07T19:15:06.530Z,13.47
2019-04-07T19:17:48.177Z,13.73
2019-04-07T19:20:24.771Z,13.57
2019-04-07T19:23:02.390Z,14.93
2019-04-07T19:25:51.172Z,13.97
2019-04-07T19:28:24.056Z,17.60
2019-04-07T19:30:54.996Z,16.50
2019-04-07T19:33:31.089Z,13.83
2019-04-07T19:36:12.092Z,15.00
2019-04-07T19:38:58.512Z,15.87
2019-04-07T19:41:31.118Z,17.73
2019-04-07T19:44:17.607Z,14.67
2019-04-07T19:47:04.555Z,13.63
2019-04-07T19:49:34.797Z,18.00
2019-04-07T19:52:22.899Z,14.93
2019-04-07T19:54:53.098Z,15.43
2019-04-07T19:57:39.350Z,19.30
2019-04-07T20:00:15.375Z,15.43
2019-04-07T20:02:53.425Z,16.17
2019-04-07T20:05:23.713Z,16.77
2019-04-07T20:08:03.065Z,17.27
2019-04-07T20:10:49.877Z,15.73
2019-04-07T20:13:20.108Z,16.57
2019-04-07T20:15:50.205Z,15.33
2019-04-07T20:18:29.999Z,19.27
2019-04-07T20:21:18.312Z,18.90
2019-04-07T20:23:51.008Z,19.67
2019-04-07T20:26:30.473Z,21.13
2019-04-07T20:29:17.199Z,13.77
2019-04-07T20:32:04.678Z,18.77
2019-04-07T20:34:40.133Z,15.07
2019-04-07T20:37:07.225Z,17.80
2019-04-07T20:39:37.718Z,17.43
2019-04-07T20:42:11.411Z,17.87
2019-04-07T20:44:59.970Z,14.57
2019-04-07T20:47:26.369Z,19.37
2019-04-07T20:50:14.313Z,17.87
2019-04-07T20:52:46.024Z,17.63
2019-04-07T20:55:16.207Z,19.17
2019-04-07T20:58:13.167Z,16.57
2019-04-07T21:00:57.660Z,16.43
2019-04-07T21:03:23.778Z,20.30
2019-04-07T21:05:56.003Z,16.97
2019-04-07T21:08:29.944Z,17.00
2019-04-07T21:11:09.731Z,20.50
2019-04-07T21:13:49.050Z,18.83
2019-04-07T21:16:25.967Z,16.20
2019-04-07T21:19:07.693Z,17.60
2019-04-07T21:21:41.647Z,20.33
2019-04-07T21:24:10.286Z,18.83
2019-04-07T21:26:49.297Z,17.87
2019-04-07T21:29:22.512Z,18.37
2019-04-07T21:31:53.547Z,17.97
2019-04-07T21:34:30.650Z,17.37
2019-04-07T21:37:04.723Z,20.80
2019-04-07T21:39:51.614Z,18.87
2019-04-07T21:42:22.236Z,17.17
2019-04-07T21:45:05.470Z,19.03
2019-04-07T21:47:39.771Z,19.03
2019-04-07T21:50:13.894Z,18.23
2019-04-07T21:52:55.898Z,17.80
2019-04-07T21:55:31.720Z,20.60
2019-04-07T21:58:19.594Z,19.47
2019-04-07T22:01:08.519Z,19.83
2019-04-07T22:03:48.105Z,21.97
2019-04-07T22:06:17.742Z,19.20
2019-04-07T22:09:04.642Z,19.10
2019-04-07T22:11:33.176Z,20.83
2019-04-07T22:14:04.036Z,21.30
2019-04-07T22:16:32.833Z,19.13
2019-04-07T22:19:02.238Z,20.00
2019-04-07T22:21:30.754Z,22.77
2019-04-07T22:24:01.354Z,22.80
2019-04-07T22:26:29.635Z,25.97
2019-04-07T22:29:01.272Z,21.13
2019-04-07T22:31:36.657Z,20.50
2019-04-07T22:34:05.392Z,21.13
2019-04-07T22:36:33.908Z,18.83
2019-04-07T22:39:02.512Z,18.57
2019-04-07T22:41:31.690Z,17.43
2019-04-07T22:44:00.226Z,18.13
2019-04-07T22:46:29.060Z,22.07
2019-04-07T22:48:58.729Z,19.80
2019-04-07T22:51:28.541Z,19.00
2019-04-07T22:53:57.713Z,15.73
2019-04-07T22:56:27.949Z,15.10
2019-04-07T22:58:56.487Z,16.60
2019-04-07T23:01:25.083Z,16.73
2019-04-07T23:03:53.813Z,17.93
2019-04-07T23:06:23.189Z,17.10
2019-04-07T23:08:51.657Z,18.53
2019-04-07T23:11:20.435Z,17.87
2019-04-07T23:13:49.330Z,15.43
2019-04-07T23:16:18.860Z,17.60
2019-04-07T23:18:47.789Z,15.87
2019-04-07T23:21:17.162Z,21.13
2019-04-07T23:23:46.227Z,16.07
2019-04-07T23:26:14.888Z,20.03
2019-04-07T23:28:44.294Z,17.60
2019-04-07T23:31:13.681Z,17.27
2019-04-07T23:33:42.321Z,17.73
2019-04-07T23:36:11.576Z,17.90
2019-04-07T23:38:41.068Z,20.33
2019-04-07T23:41:09.676Z,16.50
2019-04-07T23:43:38.123Z,17.27
2019-04-07T23:46:18.768Z,21.20
2019-04-07T23:48:36.765Z,17.93
2019-04-07T23:51:05.864Z,18.00
2019-04-07T23:54:09.005Z,19.13
2019-04-07T23:56:39.193Z,17.67
2019-04-07T23:59:08.210Z,16.53
